Portada
METAR-TAF:

METAR-TAF

Aeropuertos :

Pohnpei, Micronesia

Aeropuerto Internacional de Pohnpei

latitud: 06-59N, longitud: 158-12E, altitud: 2 m

Observación

El informe se hizo hace 11 horas y 17 minutos, a las 03:59 UTC
Viento 6 kt del sur-sureste
Temperatura 27°C
Humedad 89%
Presión 1006 hPa
Visibilidad: 16.1 km
Cielo nuboso a una altura de 1700 ft, Cumulonimbus.
Cielo cubierto a una altura de 12000 ft
chaparrones de lluvia

METAR: PTPN 110359Z 15006KT 10SM -SHRA BKN017CB OVC120 27/25 A2970 RMK CB ALQDS MOV W LAST

Hora: 02:16 (15:16 UTC)

Pronóstico

El informe se hizo hace 15 horas y 45 minutos, a las 23:31 UTC
Pronóstico válido del 11 a las 00 UTC al 11 a las 24 UTC
Viento 10 kt del este-sureste
Visibilidad: 10 km
Nubes dispersas a una altura de 1800 ft
Cielo nuboso a una altura de 13000 ft
chaparrones en las proximidades

TAF: PTPN 102331Z 1100/1124 11010KT P6SM VCSH SCT018 BKN130

Observaciones y pronósticos meteorológicos de más de 4000 aeropuertos (mensajes METAR y TAF).

Los puntos amarillos y rojos representan las estaciones disponibles.

Ponga el ratón en el punto deseado para ver el nombre de la estación.

Haga clic para ver las observaciones y los pronósticos meteorológicos.

Para cambiar el mapa : haga clic en los botones verdes con una cruz de color negro para hacer un zoom, en el botón verde con un guión para alejar o en las flechas verdes para mapas adyacentes.


METAR-TAF: